Time;durP1;ratioP1;P1;durP2;ratioP2;P2;SDS_P1;SDS_P2;PMS_P1;PMS_P2;Temp;Humidity;BMP_temperature;BMP_pressure;BME280_temperature;BME280_humidity;BME280_pressure;Samples;Min_cycle;Max_cycle;Signal;HPM_P1;HPM_P2
2022/06/12 00:02:21;;;;;;;15.95;5.90;;;;;;;12.63;100.00;102112.63;5207669;28;20040;-66
2022/06/12 00:04:53;;;;;;;14.13;5.50;;;;;;;12.59;100.00;102118.28;5207592;28;20030;-66
2022/06/12 00:07:24;;;;;;;14.30;5.45;;;;;;;12.62;100.00;102112.72;5208137;28;20360;-66
2022/06/12 00:09:55;;;;;;;11.45;6.05;;;;;;;12.60;100.00;102111.97;5205527;28;20042;-66
2022/06/12 00:12:27;;;;;;;10.82;4.95;;;;;;;12.58;100.00;102117.44;5205460;28;20022;-66
2022/06/12 00:14:58;;;;;;;10.63;5.35;;;;;;;12.56;100.00;102119.38;5203467;28;20068;-66
2022/06/12 00:17:30;;;;;;;17.90;5.60;;;;;;;12.50;100.00;102119.72;5206828;28;20026;-66
2022/06/12 00:20:02;;;;;;;13.60;5.90;;;;;;;12.44;100.00;102117.47;5205561;28;20050;-66
2022/06/12 00:22:33;;;;;;;11.07;6.43;;;;;;;12.38;100.00;102112.50;5205549;28;20073;-66
2022/06/12 00:25:09;;;;;;;13.38;6.03;;;;;;;12.26;100.00;102108.78;5205884;28;20117;-66
2022/06/12 00:27:41;;;;;;;12.10;5.78;;;;;;;12.25;100.00;102109.75;5208437;28;20030;-66
2022/06/12 00:30:16;;;;;;;13.38;6.57;;;;;;;12.31;100.00;102104.88;5205892;28;20026;-66
2022/06/12 00:32:49;;;;;;;10.65;6.75;;;;;;;12.26;100.00;102112.31;5205671;28;20025;-66
2022/06/12 00:35:27;;;;;;;12.55;6.32;;;;;;;12.31;100.00;102112.00;5204952;28;20034;-66
2022/06/12 00:37:59;;;;;;;14.55;6.15;;;;;;;12.22;100.00;102112.63;5206109;28;20061;-66
2022/06/12 00:40:30;;;;;;;14.45;5.40;;;;;;;12.20;100.00;102112.72;5208185;28;20172;-66
2022/06/12 00:43:03;;;;;;;11.40;5.38;;;;;;;12.20;100.00;102111.88;5207779;28;20030;-66
2022/06/12 00:45:51;;;;;;;10.07;4.85;;;;;;;12.19;100.00;102110.13;5204190;28;20065;-66
2022/06/12 00:48:29;;;;;;;14.80;5.13;;;;;;;12.06;100.00;102113.59;5205757;28;20044;-66
2022/06/12 00:51:15;;;;;;;14.07;5.50;;;;;;;12.05;100.00;102113.69;5205154;28;20035;-66
2022/06/12 00:53:54;;;;;;;9.95;4.60;;;;;;;12.07;100.00;102114.44;5206184;28;20112;-66
2022/06/12 00:56:39;;;;;;;12.98;4.97;;;;;;;12.03;100.00;102119.13;5206497;28;20044;-67
2022/06/12 00:59:14;;;;;;;14.55;5.13;;;;;;;11.92;100.00;102114.41;5207480;28;20033;-66
2022/06/12 01:01:49;;;;;;;10.63;4.80;;;;;;;12.00;100.00;102107.75;5204927;28;20029;-66
2022/06/12 01:07:18;;;;;;;11.70;4.50;;;;;;;12.01;100.00;102106.81;5211975;28;20065;-66
2022/06/12 01:09:53;;;;;;;12.35;4.18;;;;;;;11.82;100.00;102112.41;5209584;28;20038;-66
2022/06/12 01:12:28;;;;;;;11.52;4.72;;;;;;;11.87;100.00;102119.19;5207916;28;20112;-66
2022/06/12 01:15:07;;;;;;;10.27;4.28;;;;;;;11.86;100.00;102116.59;5207458;28;20432;-66
2022/06/12 01:17:39;;;;;;;12.52;4.43;;;;;;;11.84;100.00;102124.72;5207872;28;20026;-66
2022/06/12 01:20:17;;;;;;;10.55;4.55;;;;;;;11.79;100.00;102116.09;5209269;28;20034;-66
2022/06/12 01:23:18;;;;;;;13.50;4.90;;;;;;;11.78;100.00;102109.03;5204724;28;20057;-66
2022/06/12 01:26:01;;;;;;;11.25;4.32;;;;;;;11.68;100.00;102116.78;5206009;28;20551;-66
2022/06/12 01:28:47;;;;;;;11.38;4.40;;;;;;;11.70;100.00;102117.53;5204458;28;20037;-66
2022/06/12 01:31:35;;;;;;;10.73;4.35;;;;;;;11.67;100.00;102114.19;5206928;28;20506;-66
2022/06/12 01:34:13;;;;;;;13.73;4.50;;;;;;;11.57;100.00;102111.22;5212860;28;20037;-66
2022/06/12 01:36:59;;;;;;;12.20;4.03;;;;;;;11.41;100.00;102113.97;5215122;28;20038;-66
2022/06/12 01:39:49;;;;;;;13.02;4.15;;;;;;;11.49;100.00;102110.81;5212714;28;20303;-66
2022/06/12 01:42:36;;;;;;;13.27;4.70;;;;;;;11.40;100.00;102109.53;5218984;28;20707;-66
2022/06/12 01:45:32;;;;;;;10.73;4.13;;;;;;;11.39;100.00;102099.81;5217177;28;20034;-66
2022/06/12 01:48:09;;;;;;;14.15;4.72;;;;;;;11.43;100.00;102100.47;5220402;28;20112;-66
2022/06/12 01:50:55;;;;;;;13.50;4.20;;;;;;;11.22;100.00;102106.16;5214862;28;20026;-66
2022/06/12 01:53:33;;;;;;;13.73;4.57;;;;;;;11.22;100.00;102105.28;5213047;28;20046;-66
2022/06/12 01:56:30;;;;;;;12.90;4.00;;;;;;;11.17;100.00;102100.22;5215778;28;20037;-66
2022/06/12 01:59:24;;;;;;;13.10;4.90;;;;;;;11.15;100.00;102105.66;5216071;28;20076;-66
2022/06/12 02:02:09;;;;;;;14.20;4.70;;;;;;;11.13;100.00;102096.03;5214632;28;20099;-66
2022/06/12 02:04:53;;;;;;;9.35;4.55;;;;;;;11.14;100.00;102098.59;5215440;28;20298;-66
2022/06/12 02:07:30;;;;;;;14.23;4.72;;;;;;;11.17;100.00;102095.75;5216224;28;20034;-66
2022/06/12 02:10:17;;;;;;;10.73;5.00;;;;;;;11.14;100.00;102098.59;5215523;28;20042;-66
2022/06/12 02:13:13;;;;;;;14.80;4.72;;;;;;;11.03;100.00;102094.84;5209585;28;20108;-66
2022/06/12 02:15:57;;;;;;;11.90;4.88;;;;;;;10.99;100.00;102105.69;5216832;28;20041;-66
2022/06/12 02:18:50;;;;;;;12.65;4.47;;;;;;;11.06;100.00;102103.50;5215291;28;20088;-66
2022/06/12 02:21:27;;;;;;;16.25;5.93;;;;;;;11.08;100.00;102116.78;5211917;28;20034;-66
2022/06/12 02:24:07;;;;;;;12.63;5.35;;;;;;;10.99;100.00;102115.53;5215867;28;20044;-66
2022/06/12 02:26:58;;;;;;;12.20;4.05;;;;;;;11.03;100.00;102111.72;5213844;28;20147;-66
2022/06/12 02:29:47;;;;;;;11.48;4.78;;;;;;;10.96;100.00;102111.22;5216239;28;20103;-66
2022/06/12 02:32:30;;;;;;;11.95;5.20;;;;;;;10.89;100.00;102103.63;5214674;28;20053;-66
2022/06/12 02:35:19;;;;;;;12.77;5.18;;;;;;;10.92;100.00;102101.66;5215218;28;20041;-66
2022/06/12 02:37:55;;;;;;;11.70;5.20;;;;;;;10.80;100.00;102105.03;5213758;28;20456;-66
2022/06/12 02:40:31;;;;;;;9.13;4.60;;;;;;;10.73;100.00;102101.00;5213405;28;20480;-66
2022/06/12 02:43:12;;;;;;;13.10;5.18;;;;;;;10.89;100.00;102099.19;5210224;28;20116;-66
2022/06/12 02:46:04;;;;;;;13.32;5.00;;;;;;;10.70;100.00;102094.03;5209120;28;20033;-66
2022/06/12 02:48:36;;;;;;;10.77;4.57;;;;;;;10.82;100.00;102088.94;5210451;28;20037;-66
2022/06/12 02:51:22;;;;;;;14.07;5.05;;;;;;;10.82;100.00;102091.63;5208230;28;20464;-66
2022/06/12 02:54:05;;;;;;;18.17;5.90;;;;;;;10.83;100.00;102090.66;5207583;28;20042;-66
2022/06/12 02:57:08;;;;;;;15.70;5.40;;;;;;;10.83;100.00;102093.31;5206494;28;20119;-66
2022/06/12 03:00:04;;;;;;;11.60;4.80;;;;;;;10.71;100.00;102074.38;5210175;28;20038;-66
2022/06/12 03:02:52;;;;;;;11.48;5.05;;;;;;;10.71;100.00;102077.06;5211104;28;20388;-66
2022/06/12 03:05:28;;;;;;;15.00;5.15;;;;;;;10.82;100.00;102086.28;5212342;28;20172;-66
2022/06/12 03:08:03;;;;;;;11.57;4.72;;;;;;;10.70;100.00;102082.47;5209234;28;20041;-66
2022/06/12 03:10:41;;;;;;;15.23;5.45;;;;;;;10.75;100.00;102091.94;5213103;28;20049;-66
2022/06/12 03:13:14;;;;;;;14.02;5.93;;;;;;;10.77;100.00;102092.72;5208205;28;20476;-66
2022/06/12 03:16:10;;;;;;;10.80;5.10;;;;;;;10.84;100.00;102093.25;5208587;28;20030;-66
2022/06/12 03:18:48;;;;;;;16.60;5.60;;;;;;;10.68;100.00;102090.59;5219914;28;20057;-66
2022/06/12 03:21:41;;;;;;;14.45;5.15;;;;;;;10.63;100.00;102095.31;5207315;28;20056;-66
2022/06/12 03:24:36;;;;;;;13.68;5.28;;;;;;;10.69;100.00;102096.78;5211173;28;20042;-66
2022/06/12 03:27:15;;;;;;;15.00;5.82;;;;;;;10.53;100.00;102092.31;5209298;28;20030;-66
2022/06/12 03:30:10;;;;;;;11.98;5.40;;;;;;;10.58;100.00;102095.59;5211685;28;20032;-66
2022/06/12 03:32:41;;;;;;;10.10;5.50;;;;;;;10.71;100.00;102101.06;5209136;28;20569;-66
2022/06/12 03:35:26;;;;;;;15.45;5.57;;;;;;;10.62;100.00;102095.41;5208560;28;20030;-66
2022/06/12 03:38:21;;;;;;;14.88;6.38;;;;;;;10.62;100.00;102096.25;5211760;28;20038;-66
2022/06/12 03:41:10;;;;;;;12.00;5.78;;;;;;;10.68;100.00;102092.38;5208634;28;20073;-66
2022/06/12 03:44:20;;;;;;;14.98;5.90;;;;;;;10.63;100.00;102100.66;5207899;28;20030;-66
2022/06/12 03:47:15;;;;;;;11.93;5.75;;;;;;;10.57;100.00;102098.34;5215254;28;20038;-66
2022/06/12 03:49:59;;;;;;;11.30;5.35;;;;;;;10.56;100.00;102100.13;5213216;28;20368;-66
2022/06/12 03:52:52;;;;;;;14.75;6.25;;;;;;;10.62;100.00;102100.75;5211147;28;21804;-66
2022/06/12 03:57:50;;;;;;;12.38;6.15;;;;;;;10.63;100.00;102106.00;5208821;28;20091;-66
2022/06/12 03:58:26;;;;;;;10.70;5.55;;;;;;;10.61;100.00;102102.56;5210441;28;20045;-66
2022/06/12 04:00:59;;;;;;;12.52;5.88;;;;;;;10.61;100.00;102104.38;5213739;28;20103;-66
2022/06/12 04:03:40;;;;;;;11.80;6.00;;;;;;;10.67;100.00;102104.88;5208108;28;20053;-66
2022/06/12 04:06:16;;;;;;;14.95;6.05;;;;;;;10.65;100.00;102100.59;5209517;28;20038;-66
2022/06/12 04:08:51;;;;;;;12.40;5.70;;;;;;;10.74;100.00;102100.06;5210375;28;20029;-66
2022/06/12 04:11:25;;;;;;;11.90;5.35;;;;;;;10.68;100.00;102101.28;5215240;28;20372;-66
2022/06/12 04:13:59;;;;;;;12.57;5.90;;;;;;;10.78;100.00;102096.25;5213935;28;20033;-66
2022/06/12 04:16:38;;;;;;;11.77;5.45;;;;;;;10.85;100.00;102104.75;5213008;28;20022;-66
2022/06/12 04:19:18;;;;;;;13.98;5.68;;;;;;;10.72;100.00;102097.47;5213993;28;20136;-66
2022/06/12 04:21:59;;;;;;;17.70;6.05;;;;;;;10.82;100.00;102104.97;5214198;28;20042;-66
2022/06/12 04:24:46;;;;;;;14.15;6.57;;;;;;;10.88;100.00;102105.47;5212174;28;20489;-66
2022/06/12 04:27:26;;;;;;;11.43;5.38;;;;;;;10.91;100.00;102107.97;5212479;28;20037;-66
2022/06/12 04:30:14;;;;;;;11.55;5.43;;;;;;;10.81;100.00;102104.06;5212352;28;20048;-66
2022/06/12 04:32:47;;;;;;;13.40;4.97;;;;;;;10.90;100.00;102116.91;5215035;28;20025;-66
2022/06/12 04:35:18;;;;;;;14.13;5.97;;;;;;;11.01;100.00;102116.31;5213176;28;20033;-66
2022/06/12 04:37:50;;;;;;;11.60;4.95;;;;;;;10.95;100.00;102119.34;5211552;28;20095;-66
2022/06/12 04:40:27;;;;;;;11.15;5.47;;;;;;;11.09;100.00;102131.88;5213036;28;20110;-66
2022/06/12 04:42:58;;;;;;;15.15;5.05;;;;;;;10.99;100.00;102120.88;5211583;28;20037;-66
2022/06/12 04:45:29;;;;;;;11.85;5.15;;;;;;;11.07;100.00;102123.09;5210448;28;20842;-66
2022/06/12 04:48:03;;;;;;;13.45;5.10;;;;;;;11.07;100.00;102121.28;5212238;28;20496;-66
2022/06/12 04:50:35;;;;;;;11.45;5.32;;;;;;;11.10;100.00;102122.91;5211058;28;20472;-66
2022/06/12 04:53:06;;;;;;;15.65;4.90;;;;;;;11.14;100.00;102116.41;5209369;28;20026;-66
2022/06/12 04:55:38;;;;;;;12.98;4.32;;;;;;;11.17;100.00;102119.78;5210949;28;20036;-66
2022/06/12 04:58:09;;;;;;;14.27;5.30;;;;;;;11.24;100.00;102124.75;5209439;28;20033;-66
2022/06/12 05:00:41;;;;;;;11.80;5.13;;;;;;;11.24;100.00;102124.75;5209235;28;20022;-66
2022/06/12 05:03:12;;;;;;;12.45;4.95;;;;;;;11.29;100.00;102109.31;5210478;28;20030;-66
2022/06/12 05:05:44;;;;;;;10.35;4.53;;;;;;;11.30;100.00;102109.25;5211602;28;20026;-66
2022/06/12 05:08:17;;;;;;;11.50;5.20;;;;;;;11.41;100.00;102118.41;5209201;28;20061;-66
2022/06/12 05:10:48;;;;;;;12.50;5.20;;;;;;;11.39;100.00;102113.19;5212500;28;20076;-66
2022/06/12 05:13:19;;;;;;;11.15;5.15;;;;;;;11.43;100.00;102109.38;5212380;28;20026;-66
2022/06/12 05:15:51;;;;;;;14.32;5.20;;;;;;;11.53;100.00;102115.88;5210649;28;20029;-66
2022/06/12 05:18:22;;;;;;;16.52;5.05;;;;;;;11.52;100.00;102116.81;5209886;28;20041;-66
2022/06/12 05:20:54;;;;;;;16.52;6.15;;;;;;;11.62;100.00;102118.94;5208523;28;20127;-66
2022/06/12 05:23:25;;;;;;;16.10;5.03;;;;;;;11.73;100.00;102116.47;5214264;28;20039;-66
2022/06/12 05:25:57;;;;;;;14.02;4.90;;;;;;;11.68;100.00;102118.59;5212952;28;20079;-66
2022/06/12 05:28:29;;;;;;;12.38;4.93;;;;;;;11.75;100.00;102120.81;5208771;28;20040;-66
2022/06/12 05:31:00;;;;;;;15.45;5.68;;;;;;;11.83;100.00;102117.66;5210387;28;20034;-66
2022/06/12 05:33:31;;;;;;;13.25;5.20;;;;;;;11.88;100.00;102112.00;5213408;28;20028;-66
2022/06/12 05:36:04;;;;;;;13.77;5.38;;;;;;;11.94;100.00;102109.84;5212280;28;20034;-66
2022/06/12 05:38:35;;;;;;;14.32;5.45;;;;;;;11.99;100.00;102116.75;5208675;28;20022;-66
2022/06/12 05:41:07;;;;;;;16.20;5.95;;;;;;;12.09;100.00;102117.88;5213006;28;20087;-66
2022/06/12 05:43:40;;;;;;;12.98;5.70;;;;;;;12.16;100.00;102124.56;5227658;28;20033;-66
2022/06/12 05:46:14;;;;;;;12.15;5.63;;;;;;;12.25;100.00;102123.13;5212197;28;20037;-66
2022/06/12 05:48:46;;;;;;;14.57;5.15;;;;;;;12.29;100.00;102117.50;5211992;28;20041;-66
2022/06/12 05:51:19;;;;;;;15.63;5.28;;;;;;;12.39;100.00;102124.91;5214287;28;20033;-66
2022/06/12 05:53:51;;;;;;;14.60;5.45;;;;;;;12.47;100.00;102127.97;5213541;28;20084;-66
2022/06/12 05:56:24;;;;;;;14.05;4.68;;;;;;;12.56;100.00;102124.72;5210911;28;20123;-66
2022/06/12 05:58:57;;;;;;;10.43;4.43;;;;;;;12.63;100.00;102127.84;5211978;28;20466;-66
2022/06/12 06:01:28;;;;;;;14.40;6.10;;;;;;;12.73;100.00;102132.50;5210235;28;20391;-66
2022/06/12 06:04:00;;;;;;;17.63;5.75;;;;;;;12.81;100.00;102139.16;5209187;28;20030;-66
2022/06/12 06:06:36;;;;;;;14.32;5.03;;;;;;;12.90;100.00;102125.19;5211268;28;20034;-66
2022/06/12 06:09:07;;;;;;;13.45;4.97;;;;;;;12.96;100.00;102130.13;5210087;28;20526;-66
2022/06/12 06:11:40;;;;;;;15.13;5.07;;;;;;;13.08;100.00;102134.69;5210127;28;20025;-66
2022/06/12 06:14:12;;;;;;;21.00;5.43;;;;;;;13.13;100.00;102137.94;5211473;28;20476;-66
2022/06/12 06:16:44;;;;;;;17.38;5.85;;;;;;;13.28;100.00;102143.22;5208136;28;20049;-66
2022/06/12 06:19:16;;;;;;;19.25;5.72;;;;;;;13.38;100.00;102147.00;5209795;28;20053;-66
2022/06/12 06:21:47;;;;;;;14.60;6.10;;;;;;;13.44;100.00;102143.94;5215237;28;20030;-66
2022/06/12 06:24:19;;;;;;;16.08;6.43;;;;;;;13.59;100.00;102139.31;5214989;28;20080;-66
2022/06/12 06:26:50;;;;;;;16.08;6.40;;;;;;;13.69;100.00;102142.22;5211747;28;20038;-66
2022/06/12 06:29:21;;;;;;;14.98;5.07;;;;;;;13.89;100.00;102135.50;5214497;28;20033;-66
2022/06/12 06:31:54;;;;;;;20.90;6.10;;;;;;;14.05;100.00;102140.63;5212683;28;20492;-66
2022/06/12 06:34:25;;;;;;;17.25;5.72;;;;;;;14.30;100.00;102146.00;5213775;28;20089;-66
2022/06/12 06:36:56;;;;;;;14.60;5.72;;;;;;;14.62;100.00;102142.81;5212956;28;20068;-65
2022/06/12 06:39:28;;;;;;;16.35;6.25;;;;;;;14.83;100.00;102140.41;5214225;28;20042;-66
2022/06/12 06:41:59;;;;;;;17.95;5.88;;;;;;;15.03;100.00;102141.63;5211852;28;20128;-66
2022/06/12 06:47:20;;;;;;;19.30;5.93;;;;;;;15.41;100.00;102145.91;5213184;28;20033;-66
2022/06/12 06:49:52;;;;;;;16.73;6.22;;;;;;;15.46;99.20;102146.44;5213300;28;20033;-66
2022/06/12 06:52:24;;;;;;;17.25;6.30;;;;;;;15.61;98.72;102156.97;5212514;28;20030;-66
2022/06/12 06:54:55;;;;;;;18.48;6.05;;;;;;;15.67;97.28;102157.38;5210511;28;20130;-66
2022/06/12 06:57:26;;;;;;;16.85;5.90;;;;;;;15.85;97.48;102154.25;5214287;28;20187;-66
2022/06/12 06:59:57;;;;;;;22.30;6.03;;;;;;;15.93;96.75;102153.66;5212368;28;20029;-66
2022/06/12 07:02:29;;;;;;;15.95;5.80;;;;;;;16.13;95.80;102160.16;5212365;28;20109;-66
2022/06/12 07:05:00;;;;;;;16.05;5.63;;;;;;;16.27;95.90;102152.69;5213528;28;20369;-66
2022/06/12 07:07:33;;;;;;;17.77;5.65;;;;;;;16.50;94.84;102160.75;5214534;28;20202;-66
2022/06/12 07:10:06;;;;;;;16.35;5.70;;;;;;;16.67;91.48;102154.88;5211973;28;20037;-66
2022/06/12 07:12:39;;;;;;;19.98;6.03;;;;;;;16.80;90.64;102159.25;5210072;28;20037;-67
2022/06/12 07:15:11;;;;;;;15.57;5.28;;;;;;;16.93;90.33;102160.00;5211144;28;20084;-66
2022/06/12 07:17:43;;;;;;;16.88;5.28;;;;;;;16.97;89.34;102165.97;5215510;28;20037;-66
2022/06/12 07:20:17;;;;;;;15.20;5.07;;;;;;;17.11;89.84;102160.31;5213409;28;20049;-66
2022/06/12 07:22:49;;;;;;;;;;;;;;;17.35;93.26;102167.31;5212708;28;20036;-66
2022/06/12 07:25:21;;;;;;;16.02;5.20;;;;;;;17.45;87.53;102160.16;5212380;28;20254;-66
2022/06/12 07:27:52;;;;;;;16.25;5.60;;;;;;;17.48;86.69;102159.03;5206847;28;20022;-66
2022/06/12 07:30:24;;;;;;;17.27;5.47;;;;;;;17.44;86.29;102169.25;5209422;28;20041;-66
2022/06/12 07:32:55;;;;;;;18.02;6.68;;;;;;;17.47;84.84;102168.09;5207960;28;20034;-66
2022/06/12 07:35:27;;;;;;;17.58;5.43;;;;;;;17.45;84.04;102168.25;5212153;28;20056;-66
2022/06/12 07:37:59;;;;;;;17.35;5.70;;;;;;;17.42;83.95;102171.22;5207007;28;20076;-66
2022/06/12 07:40:40;;;;;;;14.57;5.28;;;;;;;17.39;83.44;102166.06;5209035;28;20144;-66
2022/06/12 07:43:12;;;;;;;14.38;5.70;;;;;;;17.39;84.96;102169.63;5210476;28;20026;-66
2022/06/12 07:45:44;;;;;;;14.52;5.28;;;;;;;17.45;85.45;102165.56;5210341;28;20025;-66
2022/06/12 07:48:17;;;;;;;13.30;5.32;;;;;;;17.54;84.07;102172.84;5210481;28;20030;-66
2022/06/12 07:50:49;;;;;;;15.10;4.93;;;;;;;17.77;83.81;102170.03;5212710;28;20025;-66
2022/06/12 07:53:22;;;;;;;16.52;5.15;;;;;;;17.90;80.63;102167.19;5213257;28;20025;-66
2022/06/12 07:55:55;;;;;;;16.43;5.50;;;;;;;18.09;80.89;102164.56;5210769;28;20086;-66
2022/06/12 07:58:27;;;;;;;17.80;5.63;;;;;;;18.25;81.24;102164.06;5213231;28;20343;-66
2022/06/12 08:01:03;;;;;;;19.83;6.07;;;;;;;18.17;78.98;102166.59;5209096;28;20069;-66
2022/06/12 08:03:35;;;;;;;12.52;4.90;;;;;;;18.45;78.87;102166.84;5211977;28;20032;-66
2022/06/12 08:06:07;;;;;;;16.65;5.28;;;;;;;18.41;78.21;102175.25;5210752;28;20026;-66
2022/06/12 08:08:38;;;;;;;13.55;5.47;;;;;;;18.50;77.85;102165.44;5213630;28;20394;-66
2022/06/12 08:11:11;;;;;;;15.90;5.43;;;;;;;18.71;78.56;102159.97;5211298;28;20467;-66
2022/06/12 08:13:42;;;;;;;15.95;4.97;;;;;;;18.69;75.88;102156.53;5213161;28;21598;-66
2022/06/12 08:16:14;;;;;;;13.70;4.68;;;;;;;18.88;76.16;102165.72;5208349;28;20029;-66
2022/06/12 08:18:45;;;;;;;13.88;4.95;;;;;;;18.99;77.51;102161.06;5207205;28;20042;-66
2022/06/12 08:21:18;;;;;;;14.45;5.03;;;;;;;18.85;73.19;102169.59;5209746;28;20073;-66
2022/06/12 08:23:53;;;;;;;12.57;4.93;;;;;;;18.87;74.36;102166.72;5213265;28;20025;-66
2022/06/12 08:26:33;;;;;;;13.93;5.28;;;;;;;19.02;74.84;102159.06;5211976;28;20030;-66
2022/06/12 08:29:10;;;;;;;14.88;4.60;;;;;;;18.98;72.33;102161.19;5210466;28;20051;-66
2022/06/12 08:31:49;;;;;;;12.32;4.10;;;;;;;19.04;75.07;102165.19;5210092;28;20037;-66
2022/06/12 08:34:49;;;;;;;19.15;5.40;;;;;;;19.11;74.34;102163.63;5213177;28;20083;-66
2022/06/12 08:37:25;;;;;;;14.10;5.00;;;;;;;18.99;71.93;102166.47;5205412;28;20044;-66
2022/06/12 08:39:58;;;;;;;11.07;4.15;;;;;;;18.99;74.07;102166.47;5212744;28;20695;-66
2022/06/12 08:42:37;;;;;;;16.33;5.07;;;;;;;19.02;71.92;102161.75;5208268;28;20069;-65
2022/06/12 08:45:23;;;;;;;12.80;4.70;;;;;;;19.07;72.24;102165.75;5207924;28;20034;-66
2022/06/12 08:48:09;;;;;;;18.02;5.40;;;;;;;19.31;71.72;102159.06;5210444;28;20140;-66
2022/06/12 08:50:52;;;;;;;8.93;4.45;;;;;;;19.29;72.14;102153.81;5205815;28;20361;-66
2022/06/12 08:53:23;;;;;;;12.73;4.57;;;;;;;19.35;71.69;102158.66;5213569;28;20420;-66
2022/06/12 08:56:02;;;;;;;13.48;4.97;;;;;;;19.31;72.86;102154.53;5211328;28;20099;-66
2022/06/12 08:58:51;;;;;;;11.65;4.93;;;;;;;19.48;73.17;102154.78;5210104;28;20025;-66
2022/06/12 09:01:23;;;;;;;12.40;4.30;;;;;;;19.56;72.59;102146.81;5214406;28;20034;-66
2022/06/12 09:03:55;;;;;;;11.63;4.30;;;;;;;19.63;72.78;102147.09;5210893;28;20034;-66
2022/06/12 09:06:35;;;;;;;12.23;4.13;;;;;;;19.67;71.57;102138.50;5211897;28;20034;-67
2022/06/12 09:09:22;;;;;;;8.95;3.55;;;;;;;19.85;70.83;102138.66;5210960;28;21444;-66
2022/06/12 09:12:09;;;;;;;13.15;4.15;;;;;;;19.86;69.29;102134.94;5213885;28;20053;-66
2022/06/12 09:15:19;;;;;;;15.55;4.15;;;;;;;20.03;69.82;102136.03;5210320;28;20026;-66
2022/06/12 09:18:09;;;;;;;11.60;3.92;;;;;;;20.14;67.84;102137.72;5208961;28;20044;-66
2022/06/12 09:21:04;;;;;;;10.93;4.07;;;;;;;20.04;65.40;102135.03;5210015;28;20392;-66
2022/06/12 09:23:58;;;;;;;10.77;4.03;;;;;;;20.28;68.14;102134.50;5211563;28;20507;-67
2022/06/12 09:26:54;;;;;;;9.20;3.30;;;;;;;20.42;65.85;102127.72;5209314;28;20472;-66
2022/06/12 09:29:40;;;;;;;9.10;3.20;;;;;;;20.55;63.91;102130.94;5208423;28;20129;-66
2022/06/12 09:32:27;;;;;;;11.82;4.50;;;;;;;20.50;64.11;102125.13;5210426;28;20492;-66
2022/06/12 09:35:17;;;;;;;10.00;4.30;;;;;;;20.53;62.25;102127.50;5206886;28;20456;-66
2022/06/12 09:38:18;;;;;;;11.98;4.45;;;;;;;20.75;63.03;102125.44;5210838;28;20400;-66
2022/06/12 09:40:57;;;;;;;13.10;4.20;;;;;;;20.82;60.43;102128.38;5210317;28;20030;-66
2022/06/12 09:43:54;;;;;;;13.63;4.85;;;;;;;21.03;62.97;102128.09;5209837;28;20075;-66
2022/06/12 09:46:48;;;;;;;12.43;5.28;;;;;;;21.12;61.81;102127.16;5211582;28;20025;-66
2022/06/12 09:49:28;;;;;;;;;;;;;;;21.46;64.72;102134.63;5212009;28;20029;-66
2022/06/12 09:52:24;;;;;;;12.25;3.70;;;;;;;21.23;58.95;102132.34;5211810;28;19918;-66
2022/06/12 09:55:04;;;;;;;13.32;3.67;;;;;;;21.22;57.83;102127.91;5212053;28;20041;-66
2022/06/12 09:57:53;;;;;;;9.63;3.30;;;;;;;21.29;60.19;102133.59;5214644;28;20022;-66
2022/06/12 10:00:32;;;;;;;7.95;3.35;;;;;;;21.26;60.15;102134.72;5212524;28;20030;-66
2022/06/12 10:03:13;;;;;;;11.73;4.18;;;;;;;21.42;57.41;102131.31;5213073;28;20036;-67
2022/06/12 10:05:58;;;;;;;9.25;3.25;;;;;;;21.40;59.98;102137.91;5214922;28;20033;-66
2022/06/12 10:08:49;;;;;;;11.18;3.33;;;;;;;21.38;56.38;102127.19;5213323;28;20026;-66
2022/06/12 10:11:26;;;;;;;12.57;3.20;;;;;;;21.42;56.98;102128.59;5215442;28;20084;-66
2022/06/12 10:14:04;;;;;;;11.77;3.30;;;;;;;21.51;59.88;102124.09;5213841;28;20041;-66
2022/06/12 10:16:59;;;;;;;10.07;3.47;;;;;;;21.42;56.93;102123.19;5210858;28;20026;-66
2022/06/12 10:19:34;;;;;;;11.20;4.05;;;;;;;21.31;56.97;102118.00;5214160;28;20041;-66
2022/06/12 10:22:16;;;;;;;10.48;4.10;;;;;;;21.32;57.46;102117.84;5212067;28;20480;-66
2022/06/12 10:24:48;;;;;;;11.73;3.25;;;;;;;21.09;56.52;102108.47;5212355;28;20029;-66
2022/06/12 10:27:20;;;;;;;10.93;3.83;;;;;;;20.94;58.00;102111.72;5208933;28;20068;-66
2022/06/12 10:29:56;;;;;;;11.43;3.63;;;;;;;20.60;57.51;102105.28;5204271;28;20037;-66
2022/06/12 10:32:40;;;;;;;10.02;3.28;;;;;;;20.61;60.69;102113.22;5215618;28;20037;-66
2022/06/12 10:35:20;;;;;;;13.00;3.80;;;;;;;20.71;60.26;102111.34;5212625;28;20060;-66
2022/06/12 10:37:52;;;;;;;10.43;3.30;;;;;;;20.61;59.62;102107.81;5210854;28;20048;-67
2022/06/12 10:40:26;;;;;;;9.98;3.00;;;;;;;20.77;58.50;102101.72;5205657;28;20373;-66
2022/06/12 10:43:03;;;;;;;10.02;3.15;;;;;;;20.72;59.11;102109.47;5213438;28;20755;-66
2022/06/12 10:45:38;;;;;;;7.68;2.85;;;;;;;20.55;57.96;102103.81;5215454;28;20044;-66
2022/06/12 10:48:24;;;;;;;10.25;3.22;;;;;;;20.66;60.97;102108.22;5212125;28;20021;-65
2022/06/12 10:50:59;;;;;;;11.65;2.70;;;;;;;20.81;58.86;102118.56;5210100;28;20038;-66
2022/06/12 10:53:33;;;;;;;9.75;2.63;;;;;;;21.01;58.74;102113.81;5212504;28;20022;-66
2022/06/12 10:56:07;;;;;;;7.63;2.83;;;;;;;20.81;56.85;102108.53;5212481;28;20041;-65
2022/06/12 10:58:56;;;;;;;;;;;;;;;21.14;59.41;102108.84;5210971;28;20356;-65
2022/06/12 11:01:53;;;;;;;8.48;2.53;;;;;;;21.20;59.08;102097.34;5214944;28;19924;-65
2022/06/12 11:05:01;;;;;;;9.50;2.55;;;;;;;21.57;57.34;102099.03;5210410;28;20037;-66
2022/06/12 11:07:53;;;;;;;8.30;2.72;;;;;;;21.76;59.75;102088.97;5212163;28;20133;-66
2022/06/12 11:10:35;;;;;;;11.50;2.95;;;;;;;22.08;55.51;102099.16;5212000;28;20037;-66
2022/06/12 11:13:33;;;;;;;11.00;2.72;;;;;;;22.41;56.58;102092.00;5211040;28;20033;-66
2022/06/12 11:16:35;;;;;;;10.10;2.80;;;;;;;22.38;54.21;102081.47;5209832;28;20034;-67
2022/06/12 11:19:26;;;;;;;10.27;2.72;;;;;;;22.29;53.12;102087.91;5212976;28;20052;-66
2022/06/12 11:22:26;;;;;;;7.55;2.80;;;;;;;22.39;56.26;102094.03;5204441;28;20119;-65
2022/06/12 11:25:24;;;;;;;10.15;2.88;;;;;;;22.73;56.92;102095.84;5210827;28;20029;-67
2022/06/12 11:28:10;;;;;;;9.77;2.83;;;;;;;22.51;53.98;102100.91;5213742;28;21323;-66
2022/06/12 11:30:51;;;;;;;11.27;2.50;;;;;;;22.33;53.82;102083.84;5209548;28;20032;-66
2022/06/12 11:33:34;;;;;;;10.68;2.58;;;;;;;22.28;53.83;102089.78;5214395;28;20135;-66
2022/06/12 11:36:15;;;;;;;8.45;2.63;;;;;;;22.02;55.71;102086.22;5212231;28;20387;-66
2022/06/12 11:39:01;;;;;;;8.57;2.78;;;;;;;21.96;54.95;102087.72;5212118;28;20033;-66
2022/06/12 11:41:55;;;;;;;5.85;2.20;;;;;;;22.23;55.17;102077.66;5210986;28;20033;-67
2022/06/12 11:44:31;;;;;;;9.38;3.13;;;;;;;22.21;51.62;102075.09;5210892;28;20573;-68
2022/06/12 11:47:40;;;;;;;9.48;2.58;;;;;;;22.45;53.93;102074.34;5211372;28;20037;-67
2022/06/12 11:50:37;;;;;;;9.27;2.25;;;;;;;22.46;52.64;102067.91;5206900;28;20566;-66
2022/06/12 11:53:27;;;;;;;7.55;2.22;;;;;;;22.64;50.80;102072.34;5210366;28;20053;-67
2022/06/12 11:56:08;;;;;;;8.93;2.03;;;;;;;22.43;47.48;102061.94;5208854;28;20125;-67
2022/06/12 11:58:55;;;;;;;8.40;2.40;;;;;;;22.51;49.75;102059.22;5210484;28;20047;-66
2022/06/12 12:01:35;;;;;;;10.80;2.35;;;;;;;22.57;51.98;102053.16;5204687;28;20052;-65
2022/06/12 12:04:34;;;;;;;9.43;2.47;;;;;;;22.36;48.28;102056.31;5206508;28;20033;-66
2022/06/12 12:07:12;;;;;;;6.85;2.10;;;;;;;22.39;49.32;102064.13;5208505;28;20401;-66
2022/06/12 12:10:04;;;;;;;10.23;2.92;;;;;;;22.22;47.84;102065.06;5224778;28;20443;-66
2022/06/12 12:12:42;;;;;;;8.25;2.20;;;;;;;22.50;49.92;102052.94;5205545;28;20033;-65
2022/06/12 12:15:21;;;;;;;7.55;2.20;;;;;;;22.34;49.04;102055.63;5201877;28;20030;-66
2022/06/12 12:17:55;;;;;;;6.63;2.42;;;;;;;22.37;49.78;102055.28;5207967;28;20083;-67